createdAt,value
2023-01-25T00:00:44.291Z,99969.13
2023-01-25T00:03:11.529Z,99964.91
2023-01-25T00:05:38.822Z,99959.56
2023-01-25T00:08:05.944Z,99957.66
2023-01-25T00:10:33.198Z,99955.72
2023-01-25T00:13:00.389Z,99959.88
2023-01-25T00:15:27.420Z,99951.78
2023-01-25T00:17:54.526Z,99952.16
2023-01-25T00:20:21.586Z,99953.72
2023-01-25T00:22:48.731Z,99947.88
2023-01-25T00:25:15.798Z,99947.84
2023-01-25T00:27:42.975Z,99936.63
2023-01-25T00:30:10.639Z,99937.00
2023-01-25T00:32:58.422Z,99935.41
2023-01-25T00:35:30.867Z,99933.09
2023-01-25T00:38:02.021Z,99941.97
2023-01-25T00:40:29.120Z,99953.78
2023-01-25T00:42:56.172Z,99943.00
2023-01-25T00:45:23.451Z,99942.94
2023-01-25T00:47:54.609Z,99950.66
2023-01-25T00:50:21.678Z,99938.31
2023-01-25T00:52:48.964Z,99939.91
2023-01-25T00:55:16.251Z,99938.44
2023-01-25T00:57:43.305Z,99943.75
2023-01-25T01:00:11.105Z,99932.19
2023-01-25T01:02:38.227Z,99935.59
2023-01-25T01:05:06.273Z,99940.53
2023-01-25T01:07:33.844Z,99942.44
2023-01-25T01:10:01.094Z,99942.78
2023-01-25T01:12:28.183Z,99934.69
2023-01-25T01:14:56.630Z,99937.38
2023-01-25T01:17:23.890Z,99932.00
2023-01-25T01:19:50.997Z,99933.94
2023-01-25T01:22:18.130Z,99931.59
2023-01-25T01:24:47.882Z,99932.31
2023-01-25T01:27:15.021Z,99929.22
2023-01-25T01:29:42.205Z,99925.75
2023-01-25T01:32:09.689Z,99925.78
2023-01-25T01:34:36.893Z,99921.97
2023-01-25T01:37:03.956Z,99915.44
2023-01-25T01:39:31.022Z,99915.03
2023-01-25T01:41:58.308Z,99915.00
2023-01-25T01:44:46.627Z,99913.41
2023-01-25T01:47:18.249Z,99908.38
2023-01-25T01:49:51.729Z,99906.47
2023-01-25T01:52:22.967Z,99914.94
2023-01-25T01:54:55.801Z,99911.06
2023-01-25T01:57:39.971Z,99920.28
2023-01-25T02:00:18.340Z,99909.50
2023-01-25T02:02:46.584Z,99907.16
2023-01-25T02:05:42.778Z,99896.34
2023-01-25T02:08:10.875Z,99897.91
2023-01-25T02:10:38.567Z,99888.31
2023-01-25T02:13:05.637Z,99880.16
2023-01-25T02:15:38.626Z,99880.97
2023-01-25T02:18:05.780Z,99880.16
2023-01-25T02:20:47.732Z,99874.44
2023-01-25T02:23:30.592Z,99866.31
2023-01-25T02:26:00.518Z,99855.13
2023-01-25T02:28:42.554Z,99855.47
2023-01-25T02:31:09.929Z,99848.56
2023-01-25T02:33:37.228Z,99854.72
2023-01-25T02:36:08.958Z,99848.56
2023-01-25T02:38:39.284Z,99849.34
2023-01-25T02:41:18.923Z,99846.97
2023-01-25T02:43:46.107Z,99843.53
2023-01-25T02:46:22.613Z,99839.66
2023-01-25T02:48:49.920Z,99842.72
2023-01-25T02:51:17.001Z,99846.94
2023-01-25T02:53:44.072Z,99840.03
2023-01-25T02:56:11.114Z,99835.00
2023-01-25T02:58:38.166Z,99829.25
2023-01-25T03:01:05.466Z,99829.59
2023-01-25T03:03:32.488Z,99823.88
2023-01-25T03:05:59.526Z,99821.97
2023-01-25T03:08:26.655Z,99816.19
2023-01-25T03:10:58.381Z,99809.34
2023-01-25T03:13:26.027Z,99813.13
2023-01-25T03:15:58.841Z,99803.13
2023-01-25T03:18:26.288Z,99807.72
2023-01-25T03:20:53.348Z,99795.00
2023-01-25T03:23:20.529Z,99798.44
2023-01-25T03:25:47.564Z,99794.59
2023-01-25T03:28:14.583Z,99793.41
2023-01-25T03:30:41.682Z,99789.19
2023-01-25T03:33:08.921Z,99791.47
2023-01-25T03:35:35.995Z,99787.19
2023-01-25T03:38:03.081Z,99791.06
2023-01-25T03:40:30.111Z,99787.59
2023-01-25T03:42:57.198Z,99786.44
2023-01-25T03:45:24.272Z,99784.91
2023-01-25T03:47:51.317Z,99780.69
2023-01-25T03:50:18.341Z,99781.81
2023-01-25T03:52:48.259Z,99772.91
2023-01-25T03:55:15.360Z,99770.22
2023-01-25T03:57:42.550Z,99772.16
2023-01-25T04:00:12.732Z,99776.78
2023-01-25T04:02:39.857Z,99775.25
2023-01-25T04:05:07.889Z,99772.91
2023-01-25T04:07:35.201Z,99767.13
2023-01-25T04:10:02.220Z,99772.09
2023-01-25T04:12:29.358Z,99762.81
2023-01-25T04:14:56.474Z,99759.72
2023-01-25T04:17:23.539Z,99754.31
2023-01-25T04:19:50.624Z,99754.31
2023-01-25T04:22:17.905Z,99754.31
2023-01-25T04:24:44.975Z,99759.72
2023-01-25T04:27:12.042Z,99763.59
2023-01-25T04:29:41.797Z,99755.88
2023-01-25T04:32:09.339Z,99759.31
2023-01-25T04:34:36.472Z,99764.72
2023-01-25T04:37:03.597Z,99755.09
2023-01-25T04:39:30.766Z,99765.09
2023-01-25T04:41:57.802Z,99760.47
2023-01-25T04:44:24.869Z,99763.16
2023-01-25T04:46:51.927Z,99763.16
2023-01-25T04:49:19.028Z,99768.22
2023-01-25T04:51:46.045Z,99762.06
2023-01-25T04:54:13.134Z,99768.22
2023-01-25T04:56:40.218Z,99761.66
2023-01-25T04:59:07.247Z,99762.81
2023-01-25T05:01:34.501Z,99763.59
2023-01-25T05:04:01.651Z,99752.03
2023-01-25T05:06:28.757Z,99759.72
2023-01-25T05:08:55.813Z,99750.13
2023-01-25T05:11:23.075Z,99755.88
2023-01-25T05:13:50.173Z,99751.59
2023-01-25T05:16:17.258Z,99752.34
2023-01-25T05:18:48.851Z,99747.38
2023-01-25T05:21:34.770Z,99748.13
2023-01-25T05:24:01.844Z,99755.03
2023-01-25T05:26:47.521Z,99747.38
2023-01-25T05:29:14.616Z,99743.91
2023-01-25T05:31:41.675Z,99738.88
2023-01-25T05:34:09.277Z,99738.03
2023-01-25T05:36:36.367Z,99733.06
2023-01-25T05:39:06.502Z,99731.53
2023-01-25T05:41:33.615Z,99730.72
2023-01-25T05:44:00.974Z,99726.91
2023-01-25T05:46:28.602Z,99728.78
2023-01-25T05:48:55.716Z,99730.38
2023-01-25T05:51:22.920Z,99728.09
2023-01-25T05:53:49.994Z,99719.28
2023-01-25T05:56:17.128Z,99719.28
2023-01-25T05:58:44.184Z,99723.53
2023-01-25T06:01:11.776Z,99719.28
2023-01-25T06:03:38.857Z,99727.38
2023-01-25T06:06:06.560Z,99724.28
2023-01-25T06:08:33.675Z,99723.13
2023-01-25T06:11:06.791Z,99727.66
2023-01-25T06:13:33.931Z,99722.69
2023-01-25T06:16:01.103Z,99729.59
2023-01-25T06:18:31.299Z,99726.16
2023-01-25T06:20:58.996Z,99725.81
2023-01-25T06:23:26.409Z,99729.69
2023-01-25T06:25:56.613Z,99729.31
2023-01-25T06:28:23.638Z,99721.31
2023-01-25T06:30:50.816Z,99723.59
2023-01-25T06:33:17.900Z,99716.25
2023-01-25T06:35:45.003Z,99721.22
2023-01-25T06:38:12.027Z,99724.28
2023-01-25T06:40:39.209Z,99729.19
2023-01-25T06:43:10.520Z,99722.69
2023-01-25T06:45:37.964Z,99730.84
2023-01-25T06:48:05.118Z,99722.38
2023-01-25T06:50:32.138Z,99720.75
2023-01-25T06:52:59.700Z,99716.13
2023-01-25T06:55:26.792Z,99717.31
2023-01-25T06:57:53.887Z,99718.50
2023-01-25T07:00:21.271Z,99718.06
2023-01-25T07:02:48.561Z,99712.75
2023-01-25T07:05:15.687Z,99710.47
2023-01-25T07:07:46.618Z,99716.22
2023-01-25T07:10:14.211Z,99708.88
2023-01-25T07:12:41.269Z,99708.13
2023-01-25T07:15:08.963Z,99698.88
2023-01-25T07:17:36.329Z,99711.16
2023-01-25T07:20:03.658Z,99709.66
2023-01-25T07:22:30.848Z,99709.28
2023-01-25T07:24:58.998Z,99698.50
2023-01-25T07:27:26.103Z,99699.28
2023-01-25T07:29:53.198Z,99697.69
2023-01-25T07:32:20.307Z,99694.91
2023-01-25T07:34:47.377Z,99686.84
2023-01-25T07:37:14.456Z,99693.34
2023-01-25T07:39:48.056Z,99690.41
2023-01-25T07:42:15.351Z,99696.66
2023-01-25T07:44:42.505Z,99682.00
2023-01-25T07:47:09.585Z,99689.28
2023-01-25T07:49:36.602Z,99682.69
2023-01-25T07:52:03.871Z,99680.81
2023-01-25T07:54:30.917Z,99682.69
2023-01-25T07:56:58.176Z,99673.50
2023-01-25T07:59:25.594Z,99673.88
2023-01-25T08:01:53.428Z,99681.19
2023-01-25T08:04:20.637Z,99672.25
2023-01-25T08:06:47.665Z,99666.03
2023-01-25T08:09:20.327Z,99670.25
2023-01-25T08:11:49.259Z,99668.38
2023-01-25T08:14:16.769Z,99660.44
2023-01-25T08:16:43.944Z,99656.66
2023-01-25T08:19:11.696Z,99651.59
2023-01-25T08:21:38.813Z,99647.31
2023-01-25T08:24:07.188Z,99652.22
2023-01-25T08:26:35.506Z,99646.34
2023-01-25T08:29:03.275Z,99632.03
2023-01-25T08:31:33.239Z,99635.44
2023-01-25T08:34:00.833Z,99629.34
2023-01-25T08:36:28.454Z,99634.69
2023-01-25T08:39:00.729Z,99636.13
2023-01-25T08:41:29.107Z,99623.72
2023-01-25T08:43:57.074Z,99610.19
2023-01-25T08:46:25.762Z,99610.47
2023-01-25T08:48:56.820Z,99605.75
2023-01-25T08:51:25.216Z,99609.53
2023-01-25T08:53:52.319Z,99603.38
2023-01-25T08:56:19.966Z,99607.25
2023-01-25T08:58:48.323Z,99605.41
2023-01-25T09:01:17.042Z,99608.53
2023-01-25T09:03:45.888Z,99616.69
2023-01-25T09:06:13.333Z,99603.63
2023-01-25T09:08:40.457Z,99608.53
2023-01-25T09:11:15.792Z,99612.22
2023-01-25T09:13:43.711Z,99601.13
2023-01-25T09:16:28.317Z,99604.13
2023-01-25T09:19:00.534Z,99596.00
2023-01-25T09:21:28.443Z,99602.91
2023-01-25T09:24:11.256Z,99595.72
2023-01-25T09:26:40.861Z,99596.91
2023-01-25T09:29:09.457Z,99583.41
2023-01-25T09:31:40.414Z,99594.06
2023-01-25T09:34:08.708Z,99591.19
2023-01-25T09:36:36.369Z,99588.34
2023-01-25T09:39:03.663Z,99589.00
2023-01-25T09:41:42.532Z,99591.72
2023-01-25T09:44:52.514Z,99590.09
2023-01-25T09:47:42.877Z,99587.75
2023-01-25T09:50:32.668Z,99594.16
2023-01-25T09:53:10.430Z,99589.34
2023-01-25T09:55:38.062Z,99589.28
2023-01-25T09:58:12.837Z,99588.44
2023-01-25T10:00:45.272Z,99592.31
2023-01-25T10:03:24.789Z,99592.22
2023-01-25T10:05:53.836Z,99590.97
2023-01-25T10:08:32.401Z,99577.91
2023-01-25T10:11:25.118Z,99575.19
2023-01-25T10:13:52.322Z,99576.22
2023-01-25T10:16:44.386Z,99574.94
2023-01-25T10:19:26.030Z,99581.06
2023-01-25T10:21:57.438Z,99574.84
2023-01-25T10:24:39.509Z,99569.09
2023-01-25T10:27:17.408Z,99566.06
2023-01-25T10:29:45.214Z,99574.50
2023-01-25T10:32:25.087Z,99566.50
2023-01-25T10:34:57.239Z,99562.63
2023-01-25T10:37:27.915Z,99556.47
2023-01-25T10:40:04.109Z,99553.00
2023-01-25T10:42:36.681Z,99539.41
2023-01-25T10:45:11.795Z,99544.81
2023-01-25T10:47:41.920Z,99542.09
2023-01-25T10:50:09.738Z,99537.91
2023-01-25T10:52:37.865Z,99534.78
2023-01-25T10:55:15.773Z,99527.78
2023-01-25T10:57:51.408Z,99525.09
2023-01-25T11:00:37.242Z,99522.28
2023-01-25T11:03:04.893Z,99524.97
2023-01-25T11:05:36.001Z,99509.66
2023-01-25T11:08:23.575Z,99506.19
2023-01-25T11:10:51.592Z,99514.28
2023-01-25T11:13:20.892Z,99501.88
2023-01-25T11:15:53.347Z,99504.16
2023-01-25T11:18:25.909Z,99504.56
2023-01-25T11:21:14.843Z,99490.44
2023-01-25T11:23:41.994Z,99501.56
2023-01-25T11:26:17.794Z,99488.38
2023-01-25T11:28:48.914Z,99485.03
2023-01-25T11:31:22.593Z,99478.19
2023-01-25T11:33:49.735Z,99472.34
2023-01-25T11:36:25.450Z,99472.66
2023-01-25T11:39:07.706Z,99466.06
2023-01-25T11:41:58.845Z,99462.88
2023-01-25T11:44:42.372Z,99462.75
2023-01-25T11:47:37.885Z,99456.94
2023-01-25T11:50:15.316Z,99457.25
2023-01-25T11:53:13.259Z,99448.00
2023-01-25T11:56:04.774Z,99437.84
2023-01-25T11:58:59.715Z,99426.19
2023-01-25T12:01:45.350Z,99427.31
2023-01-25T12:04:34.804Z,99417.56
2023-01-25T12:07:03.948Z,99413.38
2023-01-25T12:09:40.340Z,99400.50
2023-01-25T12:12:10.367Z,99396.31
2023-01-25T12:14:48.731Z,99391.34
2023-01-25T12:17:52.694Z,99392.09
2023-01-25T12:20:31.794Z,99381.63
2023-01-25T12:23:15.828Z,99375.81
2023-01-25T12:26:10.865Z,99372.00
2023-01-25T12:28:43.365Z,99372.44
2023-01-25T12:31:24.978Z,99363.16
2023-01-25T12:33:57.260Z,99357.00
2023-01-25T12:36:34.456Z,99357.31
2023-01-25T12:39:15.712Z,99353.13
2023-01-25T12:41:48.106Z,99347.06
2023-01-25T12:44:23.863Z,99340.06
2023-01-25T12:47:14.708Z,99338.97
2023-01-25T12:49:53.363Z,99336.28
2023-01-25T12:52:33.300Z,99328.50
2023-01-25T12:55:05.822Z,99324.63
2023-01-25T12:57:51.310Z,99325.81
2023-01-25T13:00:46.253Z,99315.22
2023-01-25T13:03:34.863Z,99316.41
2023-01-25T13:06:20.782Z,99313.34
2023-01-25T13:09:03.875Z,99315.63
2023-01-25T13:11:34.390Z,99309.25
2023-01-25T13:14:16.406Z,99298.03
2023-01-25T13:17:01.523Z,99297.72
2023-01-25T13:19:31.846Z,99295.44
2023-01-25T13:22:00.005Z,99288.03
2023-01-25T13:24:29.410Z,99282.19
2023-01-25T13:26:57.018Z,99286.41
2023-01-25T13:29:36.184Z,99278.94
2023-01-25T13:32:05.312Z,99276.16
2023-01-25T13:34:39.361Z,99270.44
2023-01-25T13:37:31.779Z,99263.63
2023-01-25T13:40:27.782Z,99262.63
2023-01-25T13:43:03.741Z,99260.91
2023-01-25T13:45:34.194Z,99260.16
2023-01-25T13:48:05.872Z,99248.41
2023-01-25T13:50:36.242Z,99246.97
2023-01-25T13:53:21.843Z,99242.34
2023-01-25T13:55:52.527Z,99252.25
2023-01-25T13:58:25.901Z,99244.50
2023-01-25T14:00:58.846Z,99247.09
2023-01-25T14:03:28.849Z,99240.06
2023-01-25T14:05:58.484Z,99234.13
2023-01-25T14:08:26.429Z,99235.22
2023-01-25T14:10:54.294Z,99230.56
2023-01-25T14:13:21.633Z,99228.22
2023-01-25T14:15:59.596Z,99227.03
2023-01-25T14:18:38.439Z,99210.41
2023-01-25T14:21:15.175Z,99215.34
2023-01-25T14:23:42.266Z,99216.09
2023-01-25T14:26:28.340Z,99205.31
2023-01-25T14:29:02.320Z,99206.06
2023-01-25T14:31:35.660Z,99194.19
2023-01-25T14:34:05.021Z,99202.28
2023-01-25T14:36:34.645Z,99190.44
2023-01-25T14:39:04.461Z,99196.91
2023-01-25T14:41:34.425Z,99193.88
2023-01-25T14:44:03.507Z,99185.66
2023-01-25T14:46:34.854Z,99182.13
2023-01-25T14:49:26.822Z,99187.06
2023-01-25T14:52:02.597Z,99183.72
2023-01-25T14:54:32.203Z,99179.19
2023-01-25T14:57:04.114Z,99184.28
2023-01-25T14:59:33.324Z,99178.13
2023-01-25T15:02:03.677Z,99169.69
2023-01-25T15:04:32.812Z,99170.25
2023-01-25T15:07:12.861Z,99164.50
2023-01-25T15:10:01.566Z,99157.28
2023-01-25T15:12:31.294Z,99160.31
2023-01-25T15:14:58.695Z,99155.78
2023-01-25T15:17:43.021Z,99155.13
2023-01-25T15:20:43.506Z,99147.16
2023-01-25T15:23:26.810Z,99141.53
2023-01-25T15:25:57.797Z,99138.66
2023-01-25T15:28:27.541Z,99141.34
2023-01-25T15:30:55.152Z,99143.28
2023-01-25T15:33:24.583Z,99138.31
2023-01-25T15:35:52.205Z,99129.06
2023-01-25T15:38:20.017Z,99124.41
2023-01-25T15:40:47.298Z,99120.97
2023-01-25T15:43:19.067Z,99121.72
2023-01-25T15:45:48.454Z,99121.72
2023-01-25T15:48:18.194Z,99127.09
2023-01-25T15:50:45.383Z,99117.47
2023-01-25T15:53:17.490Z,99121.38
2023-01-25T15:55:46.494Z,99112.22
2023-01-25T15:58:18.620Z,99119.22
2023-01-25T16:00:45.667Z,99111.13
2023-01-25T16:03:13.031Z,99115.78
2023-01-25T16:05:40.197Z,99119.75
2023-01-25T16:08:09.515Z,99115.56
2023-01-25T16:10:36.532Z,99111.66
2023-01-25T16:13:03.675Z,99112.00
2023-01-25T16:15:30.712Z,99099.16
2023-01-25T16:17:57.778Z,99096.91
2023-01-25T16:20:24.888Z,99082.66
2023-01-25T16:22:51.938Z,99081.47
2023-01-25T16:25:18.975Z,99085.78
2023-01-25T16:27:46.103Z,99076.84
2023-01-25T16:30:18.594Z,99084.38
2023-01-25T16:32:46.609Z,99072.94
2023-01-25T16:35:13.760Z,99062.50
2023-01-25T16:37:40.856Z,99058.63
2023-01-25T16:40:20.640Z,99052.47
2023-01-25T16:42:47.734Z,99060.97
2023-01-25T16:45:16.885Z,99059.06
2023-01-25T16:47:43.957Z,99051.81
2023-01-25T16:50:18.587Z,99056.00
2023-01-25T16:52:46.041Z,99045.22
2023-01-25T16:55:13.867Z,99042.09
2023-01-25T16:57:43.474Z,99046.63
2023-01-25T17:00:13.080Z,99040.50
2023-01-25T17:02:49.760Z,99033.47
2023-01-25T17:05:25.143Z,99026.88
2023-01-25T17:07:52.871Z,99029.13
2023-01-25T17:10:20.050Z,99025.59
2023-01-25T17:12:47.207Z,99029.03
2023-01-25T17:15:14.296Z,99029.59
2023-01-25T17:17:41.413Z,99031.09
2023-01-25T17:20:09.479Z,99029.91
2023-01-25T17:22:37.936Z,99023.00
2023-01-25T17:25:05.431Z,99021.19
2023-01-25T17:27:32.524Z,99019.34
2023-01-25T17:29:59.624Z,99025.16
2023-01-25T17:32:26.718Z,99012.88
2023-01-25T17:34:53.813Z,99019.03
2023-01-25T17:37:20.908Z,99020.22
2023-01-25T17:39:48.563Z,99017.50
2023-01-25T17:42:15.909Z,99018.25
2023-01-25T17:44:42.941Z,99018.25
2023-01-25T17:47:10.031Z,99010.31
2023-01-25T17:49:37.074Z,99006.72
2023-01-25T17:52:04.151Z,99012.13
2023-01-25T17:54:31.956Z,99002.84
2023-01-25T17:56:59.013Z,99008.34
2023-01-25T17:59:26.081Z,99002.66
2023-01-25T18:01:53.165Z,98992.63
2023-01-25T18:04:20.523Z,98996.81
2023-01-25T18:06:47.622Z,98995.31
2023-01-25T18:09:14.715Z,98996.06
2023-01-25T18:11:42.263Z,98996.81
2023-01-25T18:14:12.988Z,98994.56
2023-01-25T18:16:40.832Z,98989.16
2023-01-25T18:19:08.122Z,98988.41
2023-01-25T18:21:35.305Z,98976.09
2023-01-25T18:24:28.365Z,98973.75
2023-01-25T18:27:01.653Z,98968.00
2023-01-25T18:29:37.629Z,98964.69
2023-01-25T18:32:04.879Z,98964.69
2023-01-25T18:34:32.133Z,98968.16
2023-01-25T18:36:59.329Z,98963.19
2023-01-25T18:39:27.004Z,98968.91
2023-01-25T18:41:54.695Z,98963.50
2023-01-25T18:44:21.806Z,98962.31
2023-01-25T18:46:49.092Z,98963.63
2023-01-25T18:49:16.255Z,98959.31
2023-01-25T18:52:04.854Z,98960.81
2023-01-25T18:54:31.949Z,98954.78
2023-01-25T18:57:00.353Z,98937.75
2023-01-25T18:59:27.514Z,98941.06
2023-01-25T19:01:54.744Z,98942.91
2023-01-25T19:04:21.789Z,98939.00
2023-01-25T19:06:53.598Z,98942.47
2023-01-25T19:09:20.627Z,98936.31
2023-01-25T19:11:47.686Z,98929.41
2023-01-25T19:14:14.747Z,98928.22
2023-01-25T19:16:41.797Z,98922.09
2023-01-25T19:19:09.075Z,98918.94
2023-01-25T19:21:36.154Z,98911.75
2023-01-25T19:24:03.414Z,98917.88
2023-01-25T19:26:30.577Z,98913.56
2023-01-25T19:28:57.651Z,98904.41
2023-01-25T19:31:26.256Z,98908.28
2023-01-25T19:34:00.541Z,98909.03
2023-01-25T19:36:32.139Z,98900.63
2023-01-25T19:38:59.201Z,98905.16
2023-01-25T19:41:27.553Z,98897.16
2023-01-25T19:43:56.385Z,98898.50
2023-01-25T19:46:25.662Z,98894.28
2023-01-25T19:48:54.061Z,98902.25
2023-01-25T19:51:23.784Z,98900.00
2023-01-25T19:54:00.089Z,98890.84
2023-01-25T19:56:29.383Z,98887.41
2023-01-25T19:58:56.694Z,98889.34
2023-01-25T20:01:27.611Z,98888.16
2023-01-25T20:04:00.548Z,98878.88
2023-01-25T20:06:27.918Z,98876.94
2023-01-25T20:08:54.962Z,98877.78
2023-01-25T20:11:29.269Z,98868.53
2023-01-25T20:13:59.056Z,98874.66
2023-01-25T20:16:27.441Z,98872.72
2023-01-25T20:18:55.833Z,98870.47
2023-01-25T20:21:24.351Z,98866.25
2023-01-25T20:23:58.078Z,98865.84
2023-01-25T20:26:29.873Z,98863.44
2023-01-25T20:28:58.055Z,98864.63
2023-01-25T20:31:33.992Z,98864.63
2023-01-25T20:34:03.767Z,98864.31
2023-01-25T20:36:31.807Z,98857.75
2023-01-25T20:38:58.874Z,98848.91
2023-01-25T20:41:26.018Z,98843.94
2023-01-25T20:44:09.894Z,98848.56
2023-01-25T20:46:38.734Z,98835.09
2023-01-25T20:49:08.244Z,98830.91
2023-01-25T20:51:35.281Z,98822.28
2023-01-25T20:54:02.363Z,98824.69
2023-01-25T20:56:29.440Z,98821.09
2023-01-25T20:58:56.535Z,98814.53
2023-01-25T21:01:28.704Z,98818.31
2023-01-25T21:03:57.006Z,98806.31
2023-01-25T21:06:25.556Z,98809.03
2023-01-25T21:08:52.766Z,98812.16
2023-01-25T21:11:20.234Z,98808.81
2023-01-25T21:13:47.470Z,98801.50
2023-01-25T21:16:21.404Z,98799.88
2023-01-25T21:18:51.723Z,98791.34
2023-01-25T21:21:21.089Z,98795.25
2023-01-25T21:23:49.843Z,98788.75
2023-01-25T21:26:19.746Z,98790.72
2023-01-25T21:28:47.879Z,98786.06
2023-01-25T21:31:19.648Z,98783.06
2023-01-25T21:33:47.571Z,98777.38
2023-01-25T21:36:18.982Z,98781.50
2023-01-25T21:38:47.696Z,98776.97
2023-01-25T21:41:17.622Z,98765.13
2023-01-25T21:44:04.550Z,98765.88
2023-01-25T21:46:31.674Z,98768.47
2023-01-25T21:49:19.406Z,98766.38
2023-01-25T21:51:51.021Z,98757.44
2023-01-25T21:54:22.881Z,98759.69
2023-01-25T21:56:51.540Z,98754.09
2023-01-25T21:59:18.930Z,98757.78
2023-01-25T22:01:46.180Z,98758.91
2023-01-25T22:04:14.586Z,98753.22
2023-01-25T22:06:41.935Z,98759.81
2023-01-25T22:09:09.758Z,98753.78
2023-01-25T22:11:37.029Z,98760.88
2023-01-25T22:14:04.397Z,98749.38
2023-01-25T22:16:31.559Z,98752.41
2023-01-25T22:19:01.572Z,98750.75
2023-01-25T22:21:33.195Z,98753.47
2023-01-25T22:24:01.854Z,98756.03
2023-01-25T22:26:59.537Z,98751.63
2023-01-25T22:29:26.714Z,98756.38
2023-01-25T22:31:53.907Z,98756.38
2023-01-25T22:34:20.985Z,98757.00
2023-01-25T22:36:48.702Z,98760.13
2023-01-25T22:39:15.788Z,98755.50
2023-01-25T22:41:42.895Z,98755.41
2023-01-25T22:44:10.068Z,98750.19
2023-01-25T22:46:37.350Z,98753.53
2023-01-25T22:49:04.857Z,98748.75
2023-01-25T22:51:32.298Z,98753.72
2023-01-25T22:54:00.230Z,98753.41
2023-01-25T22:56:30.204Z,98754.47
2023-01-25T22:58:57.780Z,98751.78
2023-01-25T23:01:26.856Z,98749.72
2023-01-25T23:03:53.985Z,98745.50
2023-01-25T23:06:23.445Z,98743.47
2023-01-25T23:08:50.970Z,98738.94
2023-01-25T23:11:20.322Z,98730.41
2023-01-25T23:14:06.221Z,98731.16
2023-01-25T23:16:34.756Z,98729.34
2023-01-25T23:19:03.432Z,98725.91
2023-01-25T23:21:30.914Z,98722.47
2023-01-25T23:24:02.303Z,98713.06
2023-01-25T23:26:37.393Z,98715.00
2023-01-25T23:29:10.525Z,98715.00
2023-01-25T23:31:37.812Z,98709.59
2023-01-25T23:34:05.878Z,98706.59
2023-01-25T23:36:41.723Z,98696.56
2023-01-25T23:39:12.738Z,98694.78
2023-01-25T23:41:39.838Z,98693.88
2023-01-25T23:44:07.638Z,98686.13
2023-01-25T23:46:34.742Z,98686.53
2023-01-25T23:49:01.832Z,98681.50
2023-01-25T23:51:29.009Z,98677.59
2023-01-25T23:53:57.677Z,98679.09
2023-01-25T23:56:24.725Z,98669.53
2023-01-25T23:58:51.768Z,98669.06
